METAR AND TAF INFORMATION
METAR FOR GMTT
ADDS - METARS form results

(1106 UTC 08 August 2020)
Data provider http://aviationweather.gov/metar/data/
 
METAR text: GMTT 081100Z 04009KT 010V070 8000 FEW020 30/21 Q1017 NOSIG
Conditions at: GMTT (TANGIER/BOUKHALF, MA) observed 1100 UTC 08 August 2020
Temperature: 30.0°C (86°F)
Dewpoint: 21.0°C (70°F) [RH = 59%]
Pressure (altimeter): 30.03 inches Hg (1017.0 mb)
Winds: from the NE (40 degrees) at 10 MPH (9 knots; 4.6 m/s)
Visibility: 5 miles ( 8 km)
Ceiling: at least 12,000 feet AGL
Clouds: few clouds at 2000 feet AGL
Weather: no significant weather observed at this time

METAR text: GMTT 081030Z 06005KT 350V130 8000 FEW020 29/21 Q1017 NOSIG
Conditions at: GMTT (TANGIER/BOUKHALF, MA) observed 1030 UTC 08 August 2020
Temperature: 29.0°C (84°F)
Dewpoint: 21.0°C (70°F) [RH = 62%]
Pressure (altimeter): 30.03 inches Hg (1017.0 mb)
Winds: from the ENE (60 degrees) at 6 MPH (5 knots; 2.6 m/s)
Visibility: 5 miles ( 8 km)
Ceiling: at least 12,000 feet AGL
Clouds: few clouds at 2000 feet AGL
Weather: no significant weather observed at this time

Forecast for: GMTT (TANGIER/BOUKHALF, MA)
Text: TAF GMTT 080500Z 0806/0912 VRB02KT CAVOK
Forecast period: 0600 to 1100 UTC 08 August 2020
Forecast type: FROM: standard forecast or significant change
Winds: variable direction winds at 2 MPH (2 knots; 1.0 m/s)
Visibility: 6 or more miles (10+ km)
Ceiling: unknown
Clouds: missing
Weather: NSW  (no significant weather)
Text: BECMG 0811/0815 09014KT
Forecast period: 1100 UTC 08 August 2020 to 1200 UTC 09 August 2020
Forecast type: BECOMING: Conditions expected to become as follows by 1500 UTC 08 August 2020
Winds: from the E (90 degrees) at 16 MPH (14 knots; 7.2 m/s)
Visibility: 6 or more miles (10+ km)
Ceiling: unknown
Clouds: missing
Weather: NSW  (no significant weather)

 AIRPORT MAP

 RUNWAY INFORMATION
Runway 07 Runway length 6562 ft Runway width 98 ft
Runway elevation 0 ft Runway displaced threshold 0 ft Runway heading 69
Runway 25 Runway length 6562 ft Runway width 98 ft
Runway elevation 0 ft Runway displaced threshold 0 ft Runway heading 249
Runway 10 Runway length 11483 ft Runway width 148 ft
Runway elevation 20 ft Runway displaced threshold 0 ft Runway heading 96
Runway 28 Runway length 11483 ft Runway width 148 ft
Runway elevation 62 ft Runway displaced threshold 1640 ft Runway heading 276

 AIRPORT FREQUENCIES
Type APP Name TANGER APP Frequency 121.2 MHZ
Type TWR Name TANGER TWR Frequency 119.5 MHZ

 AIRPORT NEAR NAVIGATION AIDS
Type VOR-DME Name Tanger Frequency 115900 KHZ



Powered by Virtual Airlines Manager [v2.6.2]